sensor_id;sensor_type;location;lat;lon;timestamp;P1;durP1;ratioP1;P2;durP2;ratioP2
15567;SDS011;7885;42.596;23.044;2023-04-09T00:01:40;32.57;;;24.07;;
15567;SDS011;7885;42.596;23.044;2023-04-09T00:04:07;25.33;;;22.60;;
15567;SDS011;7885;42.596;23.044;2023-04-09T00:06:34;24.90;;;21.93;;
15567;SDS011;7885;42.596;23.044;2023-04-09T00:09:01;25.93;;;21.70;;
15567;SDS011;7885;42.596;23.044;2023-04-09T00:11:27;26.17;;;22.47;;
15567;SDS011;7885;42.596;23.044;2023-04-09T00:13:54;25.23;;;22.37;;
15567;SDS011;7885;42.596;23.044;2023-04-09T00:16:23;26.63;;;22.43;;
15567;SDS011;7885;42.596;23.044;2023-04-09T00:18:51;27.90;;;24.90;;
15567;SDS011;7885;42.596;23.044;2023-04-09T00:21:18;27.53;;;24.20;;
15567;SDS011;7885;42.596;23.044;2023-04-09T00:23:45;27.37;;;24.40;;
15567;SDS011;7885;42.596;23.044;2023-04-09T00:26:12;27.43;;;23.97;;
15567;SDS011;7885;42.596;23.044;2023-04-09T00:28:39;26.57;;;23.67;;
15567;SDS011;7885;42.596;23.044;2023-04-09T00:31:06;27.27;;;23.33;;
15567;SDS011;7885;42.596;23.044;2023-04-09T00:33:33;25.50;;;22.80;;
15567;SDS011;7885;42.596;23.044;2023-04-09T00:36:02;25.07;;;22.37;;
15567;SDS011;7885;42.596;23.044;2023-04-09T00:38:29;26.43;;;23.60;;
15567;SDS011;7885;42.596;23.044;2023-04-09T00:40:55;28.10;;;25.10;;
15567;SDS011;7885;42.596;23.044;2023-04-09T00:43:22;28.20;;;25.10;;
15567;SDS011;7885;42.596;23.044;2023-04-09T00:45:49;28.77;;;25.70;;
15567;SDS011;7885;42.596;23.044;2023-04-09T00:48:16;26.80;;;23.90;;
15567;SDS011;7885;42.596;23.044;2023-04-09T00:50:43;26.57;;;23.67;;
15567;SDS011;7885;42.596;23.044;2023-04-09T00:53:12;29.33;;;24.70;;
15567;SDS011;7885;42.596;23.044;2023-04-09T00:55:40;27.60;;;24.00;;
15567;SDS011;7885;42.596;23.044;2023-04-09T00:58:07;27.60;;;24.27;;
15567;SDS011;7885;42.596;23.044;2023-04-09T01:00:34;25.83;;;23.13;;
15567;SDS011;7885;42.596;23.044;2023-04-09T01:03:00;27.93;;;24.97;;
15567;SDS011;7885;42.596;23.044;2023-04-09T01:05:33;28.83;;;25.70;;
15567;SDS011;7885;42.596;23.044;2023-04-09T01:08:05;30.57;;;25.90;;
15567;SDS011;7885;42.596;23.044;2023-04-09T01:10:40;31.53;;;26.97;;
15567;SDS011;7885;42.596;23.044;2023-04-09T01:13:12;35.53;;;30.83;;
15567;SDS011;7885;42.596;23.044;2023-04-09T01:15:46;35.87;;;30.87;;
15567;SDS011;7885;42.596;23.044;2023-04-09T01:18:18;32.70;;;29.07;;
15567;SDS011;7885;42.596;23.044;2023-04-09T01:20:54;31.00;;;26.83;;
15567;SDS011;7885;42.596;23.044;2023-04-09T01:23:28;29.57;;;25.73;;
15567;SDS011;7885;42.596;23.044;2023-04-09T01:26:06;32.00;;;28.50;;
15567;SDS011;7885;42.596;23.044;2023-04-09T01:28:41;30.67;;;25.87;;
15567;SDS011;7885;42.596;23.044;2023-04-09T01:31:10;28.83;;;25.70;;
15567;SDS011;7885;42.596;23.044;2023-04-09T01:33:39;33.97;;;28.67;;
15567;SDS011;7885;42.596;23.044;2023-04-09T01:36:07;32.97;;;28.60;;
15567;SDS011;7885;42.596;23.044;2023-04-09T01:38:35;31.53;;;28.00;;
15567;SDS011;7885;42.596;23.044;2023-04-09T01:41:04;33.90;;;27.97;;
15567;SDS011;7885;42.596;23.044;2023-04-09T01:43:33;35.17;;;29.80;;
15567;SDS011;7885;42.596;23.044;2023-04-09T01:46:01;34.00;;;28.73;;
15567;SDS011;7885;42.596;23.044;2023-04-09T01:48:29;31.90;;;25.77;;
15567;SDS011;7885;42.596;23.044;2023-04-09T01:50:58;30.40;;;25.07;;
15567;SDS011;7885;42.596;23.044;2023-04-09T01:53:25;27.60;;;24.60;;
15567;SDS011;7885;42.596;23.044;2023-04-09T01:55:52;27.17;;;24.27;;
15567;SDS011;7885;42.596;23.044;2023-04-09T01:58:19;26.77;;;23.90;;
15567;SDS011;7885;42.596;23.044;2023-04-09T02:00:47;26.53;;;23.37;;
15567;SDS011;7885;42.596;23.044;2023-04-09T02:03:17;27.87;;;23.80;;
15567;SDS011;7885;42.596;23.044;2023-04-09T02:05:50;28.90;;;25.80;;
15567;SDS011;7885;42.596;23.044;2023-04-09T02:08:24;28.30;;;25.20;;
15567;SDS011;7885;42.596;23.044;2023-04-09T02:10:57;27.77;;;23.43;;
15567;SDS011;7885;42.596;23.044;2023-04-09T02:13:26;29.23;;;26.03;;
15567;SDS011;7885;42.596;23.044;2023-04-09T02:15:56;29.37;;;26.03;;
15567;SDS011;7885;42.596;23.044;2023-04-09T02:18:27;30.33;;;27.20;;
15567;SDS011;7885;42.596;23.044;2023-04-09T02:20:55;31.53;;;28.10;;
15567;SDS011;7885;42.596;23.044;2023-04-09T02:23:22;31.10;;;27.30;;
15567;SDS011;7885;42.596;23.044;2023-04-09T02:25:49;29.97;;;26.53;;
15567;SDS011;7885;42.596;23.044;2023-04-09T02:28:17;29.80;;;26.43;;
15567;SDS011;7885;42.596;23.044;2023-04-09T02:30:44;29.10;;;25.23;;
15567;SDS011;7885;42.596;23.044;2023-04-09T02:33:11;30.73;;;25.07;;
15567;SDS011;7885;42.596;23.044;2023-04-09T02:35:39;29.63;;;26.43;;
15567;SDS011;7885;42.596;23.044;2023-04-09T02:38:06;30.70;;;27.43;;
15567;SDS011;7885;42.596;23.044;2023-04-09T02:40:37;33.63;;;27.20;;
15567;SDS011;7885;42.596;23.044;2023-04-09T02:43:04;31.60;;;26.10;;
15567;SDS011;7885;42.596;23.044;2023-04-09T02:45:31;29.23;;;26.07;;
15567;SDS011;7885;42.596;23.044;2023-04-09T02:47:58;32.63;;;26.57;;
15567;SDS011;7885;42.596;23.044;2023-04-09T02:50:25;30.13;;;26.90;;
15567;SDS011;7885;42.596;23.044;2023-04-09T02:52:53;29.90;;;26.23;;
15567;SDS011;7885;42.596;23.044;2023-04-09T02:55:21;31.10;;;27.50;;
15567;SDS011;7885;42.596;23.044;2023-04-09T02:57:48;30.93;;;27.70;;
15567;SDS011;7885;42.596;23.044;2023-04-09T03:00:15;24.50;;;21.83;;
15567;SDS011;7885;42.596;23.044;2023-04-09T03:02:41;22.83;;;20.57;;
15567;SDS011;7885;42.596;23.044;2023-04-09T03:05:08;28.20;;;24.70;;
15567;SDS011;7885;42.596;23.044;2023-04-09T03:07:35;28.20;;;24.90;;
15567;SDS011;7885;42.596;23.044;2023-04-09T03:10:04;29.27;;;26.17;;
15567;SDS011;7885;42.596;23.044;2023-04-09T03:12:32;30.63;;;27.37;;
15567;SDS011;7885;42.596;23.044;2023-04-09T03:14:59;26.23;;;23.43;;
15567;SDS011;7885;42.596;23.044;2023-04-09T03:17:25;27.47;;;24.63;;
15567;SDS011;7885;42.596;23.044;2023-04-09T03:19:55;27.50;;;24.57;;
15567;SDS011;7885;42.596;23.044;2023-04-09T03:22:23;27.63;;;24.77;;
15567;SDS011;7885;42.596;23.044;2023-04-09T03:24:49;27.27;;;24.47;;
15567;SDS011;7885;42.596;23.044;2023-04-09T03:27:18;25.23;;;21.87;;
15567;SDS011;7885;42.596;23.044;2023-04-09T03:29:45;19.70;;;17.70;;
15567;SDS011;7885;42.596;23.044;2023-04-09T03:32:12;23.43;;;19.70;;
15567;SDS011;7885;42.596;23.044;2023-04-09T03:34:39;21.47;;;19.33;;
15567;SDS011;7885;42.596;23.044;2023-04-09T03:37:05;23.03;;;20.73;;
15567;SDS011;7885;42.596;23.044;2023-04-09T03:39:32;24.30;;;21.73;;
15567;SDS011;7885;42.596;23.044;2023-04-09T03:41:59;24.37;;;21.77;;
15567;SDS011;7885;42.596;23.044;2023-04-09T03:44:28;18.80;;;16.90;;
15567;SDS011;7885;42.596;23.044;2023-04-09T03:46:55;20.20;;;18.07;;
15567;SDS011;7885;42.596;23.044;2023-04-09T03:49:22;21.57;;;19.27;;
15567;SDS011;7885;42.596;23.044;2023-04-09T03:51:48;21.33;;;19.03;;
15567;SDS011;7885;42.596;23.044;2023-04-09T03:54:15;18.97;;;17.13;;
15567;SDS011;7885;42.596;23.044;2023-04-09T03:56:42;20.13;;;18.03;;
15567;SDS011;7885;42.596;23.044;2023-04-09T03:59:09;21.03;;;18.87;;
15567;SDS011;7885;42.596;23.044;2023-04-09T04:01:37;19.73;;;17.53;;
15567;SDS011;7885;42.596;23.044;2023-04-09T04:04:04;22.10;;;19.80;;
15567;SDS011;7885;42.596;23.044;2023-04-09T04:06:32;27.13;;;24.30;;
15567;SDS011;7885;42.596;23.044;2023-04-09T04:08:59;24.77;;;22.07;;
15567;SDS011;7885;42.596;23.044;2023-04-09T04:11:26;27.80;;;24.80;;
15567;SDS011;7885;42.596;23.044;2023-04-09T04:13:53;26.27;;;23.53;;
15567;SDS011;7885;42.596;23.044;2023-04-09T04:16:21;25.87;;;23.17;;
15567;SDS011;7885;42.596;23.044;2023-04-09T04:18:49;29.00;;;25.87;;
15567;SDS011;7885;42.596;23.044;2023-04-09T04:21:16;24.07;;;21.47;;
15567;SDS011;7885;42.596;23.044;2023-04-09T04:23:43;23.80;;;21.27;;
15567;SDS011;7885;42.596;23.044;2023-04-09T04:26:09;25.10;;;21.97;;
15567;SDS011;7885;42.596;23.044;2023-04-09T04:28:37;23.37;;;19.10;;
15567;SDS011;7885;42.596;23.044;2023-04-09T04:31:06;23.43;;;18.50;;
15567;SDS011;7885;42.596;23.044;2023-04-09T04:33:33;26.47;;;19.80;;
15567;SDS011;7885;42.596;23.044;2023-04-09T04:36:05;25.43;;;22.50;;
15567;SDS011;7885;42.596;23.044;2023-04-09T04:38:33;27.50;;;21.17;;
15567;SDS011;7885;42.596;23.044;2023-04-09T04:41:00;20.90;;;18.60;;
15567;SDS011;7885;42.596;23.044;2023-04-09T04:43:27;23.30;;;19.47;;
15567;SDS011;7885;42.596;23.044;2023-04-09T04:45:54;24.40;;;19.00;;
15567;SDS011;7885;42.596;23.044;2023-04-09T04:48:21;24.90;;;19.57;;
15567;SDS011;7885;42.596;23.044;2023-04-09T04:50:54;22.47;;;18.80;;
15567;SDS011;7885;42.596;23.044;2023-04-09T04:53:23;29.13;;;21.60;;
15567;SDS011;7885;42.596;23.044;2023-04-09T04:55:50;33.43;;;23.03;;
15567;SDS011;7885;42.596;23.044;2023-04-09T04:58:17;29.03;;;22.63;;
15567;SDS011;7885;42.596;23.044;2023-04-09T05:00:44;33.83;;;24.10;;
15567;SDS011;7885;42.596;23.044;2023-04-09T05:03:11;34.43;;;24.43;;
15567;SDS011;7885;42.596;23.044;2023-04-09T05:05:38;36.00;;;23.23;;
15567;SDS011;7885;42.596;23.044;2023-04-09T05:08:04;38.57;;;24.03;;
15567;SDS011;7885;42.596;23.044;2023-04-09T05:10:33;38.10;;;24.07;;
15567;SDS011;7885;42.596;23.044;2023-04-09T05:13:02;40.97;;;25.40;;
15567;SDS011;7885;42.596;23.044;2023-04-09T05:15:29;37.90;;;23.97;;
15567;SDS011;7885;42.596;23.044;2023-04-09T05:17:56;41.87;;;26.93;;
15567;SDS011;7885;42.596;23.044;2023-04-09T05:20:23;42.83;;;29.03;;
15567;SDS011;7885;42.596;23.044;2023-04-09T05:22:52;42.27;;;27.33;;
15567;SDS011;7885;42.596;23.044;2023-04-09T05:25:19;40.83;;;26.53;;
15567;SDS011;7885;42.596;23.044;2023-04-09T05:27:47;35.20;;;24.07;;
15567;SDS011;7885;42.596;23.044;2023-04-09T05:30:14;42.33;;;23.30;;
15567;SDS011;7885;42.596;23.044;2023-04-09T05:32:43;32.93;;;21.03;;
15567;SDS011;7885;42.596;23.044;2023-04-09T05:35:10;33.97;;;20.83;;
15567;SDS011;7885;42.596;23.044;2023-04-09T05:37:36;28.67;;;20.20;;
15567;SDS011;7885;42.596;23.044;2023-04-09T05:40:04;27.67;;;19.83;;
15567;SDS011;7885;42.596;23.044;2023-04-09T05:42:31;32.53;;;21.93;;
15567;SDS011;7885;42.596;23.044;2023-04-09T05:44:59;30.33;;;20.33;;
15567;SDS011;7885;42.596;23.044;2023-04-09T05:47:26;29.23;;;20.37;;
15567;SDS011;7885;42.596;23.044;2023-04-09T05:49:53;35.83;;;21.73;;
15567;SDS011;7885;42.596;23.044;2023-04-09T05:52:20;32.80;;;24.00;;
15567;SDS011;7885;42.596;23.044;2023-04-09T05:54:47;33.17;;;24.33;;
15567;SDS011;7885;42.596;23.044;2023-04-09T05:57:14;33.67;;;22.20;;
15567;SDS011;7885;42.596;23.044;2023-04-09T05:59:41;32.53;;;21.80;;
15567;SDS011;7885;42.596;23.044;2023-04-09T06:02:09;34.60;;;22.70;;
15567;SDS011;7885;42.596;23.044;2023-04-09T06:04:36;34.77;;;22.73;;
15567;SDS011;7885;42.596;23.044;2023-04-09T06:07:03;37.07;;;23.50;;
15567;SDS011;7885;42.596;23.044;2023-04-09T06:09:30;33.60;;;23.80;;
15567;SDS011;7885;42.596;23.044;2023-04-09T06:11:57;34.83;;;24.43;;
15567;SDS011;7885;42.596;23.044;2023-04-09T06:14:37;31.77;;;23.77;;
15567;SDS011;7885;42.596;23.044;2023-04-09T06:17:04;35.03;;;26.40;;
15567;SDS011;7885;42.596;23.044;2023-04-09T06:19:32;35.13;;;24.20;;
15567;SDS011;7885;42.596;23.044;2023-04-09T06:21:59;34.30;;;24.27;;
15567;SDS011;7885;42.596;23.044;2023-04-09T06:24:26;33.10;;;23.93;;
15567;SDS011;7885;42.596;23.044;2023-04-09T06:26:53;37.37;;;25.10;;
15567;SDS011;7885;42.596;23.044;2023-04-09T06:29:20;35.90;;;25.63;;
15567;SDS011;7885;42.596;23.044;2023-04-09T06:31:47;31.10;;;24.10;;
15567;SDS011;7885;42.596;23.044;2023-04-09T06:34:13;33.50;;;23.97;;
15567;SDS011;7885;42.596;23.044;2023-04-09T06:36:42;31.77;;;22.97;;
15567;SDS011;7885;42.596;23.044;2023-04-09T06:39:08;32.80;;;22.93;;
15567;SDS011;7885;42.596;23.044;2023-04-09T06:41:35;29.67;;;21.87;;
15567;SDS011;7885;42.596;23.044;2023-04-09T06:44:02;28.60;;;21.50;;
15567;SDS011;7885;42.596;23.044;2023-04-09T06:46:29;31.83;;;21.60;;
15567;SDS011;7885;42.596;23.044;2023-04-09T06:48:56;28.60;;;20.47;;
15567;SDS011;7885;42.596;23.044;2023-04-09T06:51:23;35.53;;;21.27;;
15567;SDS011;7885;42.596;23.044;2023-04-09T06:53:51;31.53;;;20.47;;
15567;SDS011;7885;42.596;23.044;2023-04-09T06:56:18;26.83;;;21.03;;
15567;SDS011;7885;42.596;23.044;2023-04-09T06:58:45;27.67;;;21.57;;
15567;SDS011;7885;42.596;23.044;2023-04-09T07:01:11;29.07;;;19.23;;
15567;SDS011;7885;42.596;23.044;2023-04-09T07:03:39;27.90;;;20.60;;
15567;SDS011;7885;42.596;23.044;2023-04-09T07:06:05;26.87;;;19.10;;
15567;SDS011;7885;42.596;23.044;2023-04-09T07:08:32;26.47;;;19.50;;
15567;SDS011;7885;42.596;23.044;2023-04-09T07:11:01;28.90;;;21.20;;
15567;SDS011;7885;42.596;23.044;2023-04-09T07:13:28;25.10;;;19.50;;
15567;SDS011;7885;42.596;23.044;2023-04-09T07:15:55;25.17;;;19.47;;
15567;SDS011;7885;42.596;23.044;2023-04-09T07:18:22;26.70;;;19.80;;
15567;SDS011;7885;42.596;23.044;2023-04-09T07:20:49;31.50;;;21.97;;
15567;SDS011;7885;42.596;23.044;2023-04-09T07:23:20;27.70;;;21.50;;
15567;SDS011;7885;42.596;23.044;2023-04-09T07:25:47;25.40;;;20.03;;
15567;SDS011;7885;42.596;23.044;2023-04-09T07:28:15;28.90;;;20.57;;
15567;SDS011;7885;42.596;23.044;2023-04-09T07:30:42;29.10;;;20.83;;
15567;SDS011;7885;42.596;23.044;2023-04-09T07:33:10;23.10;;;19.03;;
15567;SDS011;7885;42.596;23.044;2023-04-09T07:35:37;26.37;;;18.73;;
15567;SDS011;7885;42.596;23.044;2023-04-09T07:38:03;27.07;;;20.27;;
15567;SDS011;7885;42.596;23.044;2023-04-09T07:40:31;25.63;;;19.20;;
15567;SDS011;7885;42.596;23.044;2023-04-09T07:43:00;24.83;;;17.43;;
15567;SDS011;7885;42.596;23.044;2023-04-09T07:45:29;27.93;;;20.93;;
15567;SDS011;7885;42.596;23.044;2023-04-09T07:47:55;27.87;;;21.37;;
15567;SDS011;7885;42.596;23.044;2023-04-09T07:50:22;20.37;;;16.70;;
15567;SDS011;7885;42.596;23.044;2023-04-09T07:52:49;23.77;;;17.97;;
15567;SDS011;7885;42.596;23.044;2023-04-09T07:55:16;22.20;;;17.80;;
15567;SDS011;7885;42.596;23.044;2023-04-09T07:57:44;22.10;;;17.07;;
15567;SDS011;7885;42.596;23.044;2023-04-09T08:00:12;19.90;;;16.20;;
15567;SDS011;7885;42.596;23.044;2023-04-09T08:02:41;23.90;;;17.20;;
15567;SDS011;7885;42.596;23.044;2023-04-09T08:05:08;21.17;;;17.20;;
15567;SDS011;7885;42.596;23.044;2023-04-09T08:07:35;22.03;;;16.70;;
15567;SDS011;7885;42.596;23.044;2023-04-09T08:10:02;20.33;;;16.83;;
15567;SDS011;7885;42.596;23.044;2023-04-09T08:12:29;24.17;;;17.87;;
15567;SDS011;7885;42.596;23.044;2023-04-09T08:14:56;21.83;;;15.50;;
15567;SDS011;7885;42.596;23.044;2023-04-09T08:17:23;16.97;;;14.77;;
15567;SDS011;7885;42.596;23.044;2023-04-09T08:19:51;20.47;;;14.60;;
15567;SDS011;7885;42.596;23.044;2023-04-09T08:22:18;20.50;;;14.87;;
15567;SDS011;7885;42.596;23.044;2023-04-09T08:24:49;19.40;;;15.20;;
15567;SDS011;7885;42.596;23.044;2023-04-09T08:27:16;27.13;;;17.90;;
15567;SDS011;7885;42.596;23.044;2023-04-09T08:29:43;27.87;;;18.23;;
15567;SDS011;7885;42.596;23.044;2023-04-09T08:32:10;27.97;;;16.47;;
15567;SDS011;7885;42.596;23.044;2023-04-09T08:34:37;30.30;;;16.03;;
15567;SDS011;7885;42.596;23.044;2023-04-09T08:37:05;28.97;;;16.67;;
15567;SDS011;7885;42.596;23.044;2023-04-09T08:39:32;29.53;;;16.40;;
15567;SDS011;7885;42.596;23.044;2023-04-09T08:42:00;25.53;;;16.20;;
15567;SDS011;7885;42.596;23.044;2023-04-09T08:44:28;22.43;;;14.17;;
15567;SDS011;7885;42.596;23.044;2023-04-09T08:46:55;23.77;;;14.10;;
15567;SDS011;7885;42.596;23.044;2023-04-09T08:49:22;20.70;;;13.30;;
15567;SDS011;7885;42.596;23.044;2023-04-09T08:51:49;19.00;;;12.90;;
15567;SDS011;7885;42.596;23.044;2023-04-09T08:54:18;19.97;;;13.43;;
15567;SDS011;7885;42.596;23.044;2023-04-09T08:56:45;18.37;;;14.43;;
15567;SDS011;7885;42.596;23.044;2023-04-09T08:59:13;17.27;;;12.33;;
15567;SDS011;7885;42.596;23.044;2023-04-09T09:01:42;14.90;;;12.53;;
15567;SDS011;7885;42.596;23.044;2023-04-09T09:04:10;19.67;;;13.67;;
15567;SDS011;7885;42.596;23.044;2023-04-09T09:06:38;18.63;;;13.90;;
15567;SDS011;7885;42.596;23.044;2023-04-09T09:09:06;25.83;;;17.67;;
15567;SDS011;7885;42.596;23.044;2023-04-09T09:11:36;19.87;;;15.60;;
15567;SDS011;7885;42.596;23.044;2023-04-09T09:14:05;15.57;;;12.40;;
15567;SDS011;7885;42.596;23.044;2023-04-09T09:16:33;21.53;;;15.07;;
15567;SDS011;7885;42.596;23.044;2023-04-09T09:19:04;21.00;;;17.03;;
15567;SDS011;7885;42.596;23.044;2023-04-09T09:21:31;15.73;;;14.13;;
15567;SDS011;7885;42.596;23.044;2023-04-09T09:23:58;21.30;;;13.37;;
15567;SDS011;7885;42.596;23.044;2023-04-09T09:26:26;21.37;;;15.57;;
15567;SDS011;7885;42.596;23.044;2023-04-09T09:28:55;16.00;;;14.20;;
15567;SDS011;7885;42.596;23.044;2023-04-09T09:31:23;26.47;;;21.13;;
15567;SDS011;7885;42.596;23.044;2023-04-09T09:33:51;14.77;;;13.37;;
15567;SDS011;7885;42.596;23.044;2023-04-09T09:36:31;14.67;;;13.10;;
15567;SDS011;7885;42.596;23.044;2023-04-09T09:38:59;15.17;;;13.50;;
15567;SDS011;7885;42.596;23.044;2023-04-09T09:41:34;14.33;;;12.83;;
15567;SDS011;7885;42.596;23.044;2023-04-09T09:44:02;12.57;;;11.23;;
15567;SDS011;7885;42.596;23.044;2023-04-09T09:46:33;13.67;;;12.23;;
15567;SDS011;7885;42.596;23.044;2023-04-09T09:49:00;15.17;;;13.40;;
15567;SDS011;7885;42.596;23.044;2023-04-09T09:51:27;13.07;;;11.73;;
15567;SDS011;7885;42.596;23.044;2023-04-09T09:53:56;16.43;;;13.67;;
15567;SDS011;7885;42.596;23.044;2023-04-09T09:56:24;18.63;;;14.73;;
15567;SDS011;7885;42.596;23.044;2023-04-09T09:59:00;15.07;;;13.17;;
15567;SDS011;7885;42.596;23.044;2023-04-09T10:01:32;16.53;;;13.97;;
15567;SDS011;7885;42.596;23.044;2023-04-09T10:03:59;17.63;;;14.80;;
15567;SDS011;7885;42.596;23.044;2023-04-09T10:06:29;15.77;;;13.47;;
15567;SDS011;7885;42.596;23.044;2023-04-09T10:08:58;16.33;;;14.73;;
15567;SDS011;7885;42.596;23.044;2023-04-09T10:11:29;23.73;;;19.37;;
15567;SDS011;7885;42.596;23.044;2023-04-09T10:13:58;17.93;;;16.07;;
15567;SDS011;7885;42.596;23.044;2023-04-09T10:16:27;17.40;;;15.60;;
15567;SDS011;7885;42.596;23.044;2023-04-09T10:18:54;20.00;;;15.97;;
15567;SDS011;7885;42.596;23.044;2023-04-09T10:21:26;19.57;;;15.97;;
15567;SDS011;7885;42.596;23.044;2023-04-09T10:24:02;19.10;;;14.63;;
15567;SDS011;7885;42.596;23.044;2023-04-09T10:26:32;14.97;;;13.47;;
15567;SDS011;7885;42.596;23.044;2023-04-09T10:29:03;18.93;;;16.93;;
15567;SDS011;7885;42.596;23.044;2023-04-09T10:34:17;17.17;;;14.27;;
15567;SDS011;7885;42.596;23.044;2023-04-09T10:36:48;15.50;;;13.93;;
15567;SDS011;7885;42.596;23.044;2023-04-09T10:39:18;13.70;;;12.40;;
15567;SDS011;7885;42.596;23.044;2023-04-09T10:41:45;16.10;;;13.70;;
15567;SDS011;7885;42.596;23.044;2023-04-09T10:44:20;13.73;;;12.43;;
15567;SDS011;7885;42.596;23.044;2023-04-09T10:46:49;12.07;;;10.97;;
15567;SDS011;7885;42.596;23.044;2023-04-09T10:49:19;12.87;;;11.70;;
15567;SDS011;7885;42.596;23.044;2023-04-09T10:51:47;12.43;;;11.33;;
15567;SDS011;7885;42.596;23.044;2023-04-09T10:57:12;11.97;;;10.87;;
15567;SDS011;7885;42.596;23.044;2023-04-09T10:59:41;11.90;;;10.80;;
15567;SDS011;7885;42.596;23.044;2023-04-09T11:02:16;13.90;;;12.60;;
15567;SDS011;7885;42.596;23.044;2023-04-09T11:05:12;11.80;;;10.60;;
15567;SDS011;7885;42.596;23.044;2023-04-09T11:07:46;11.70;;;10.57;;
15567;SDS011;7885;42.596;23.044;2023-04-09T11:10:23;11.57;;;10.47;;
15567;SDS011;7885;42.596;23.044;2023-04-09T11:12:49;24.80;;;18.83;;
15567;SDS011;7885;42.596;23.044;2023-04-09T11:15:18;12.10;;;10.90;;
15567;SDS011;7885;42.596;23.044;2023-04-09T11:17:47;19.30;;;13.97;;
15567;SDS011;7885;42.596;23.044;2023-04-09T11:20:15;11.77;;;10.57;;
15567;SDS011;7885;42.596;23.044;2023-04-09T11:22:44;11.43;;;10.33;;
15567;SDS011;7885;42.596;23.044;2023-04-09T11:25:16;13.77;;;10.63;;
15567;SDS011;7885;42.596;23.044;2023-04-09T11:27:44;8.23;;;7.53;;
15567;SDS011;7885;42.596;23.044;2023-04-09T11:30:11;7.87;;;7.27;;
15567;SDS011;7885;42.596;23.044;2023-04-09T11:32:39;7.20;;;6.60;;
15567;SDS011;7885;42.596;23.044;2023-04-09T11:35:10;8.23;;;7.47;;
15567;SDS011;7885;42.596;23.044;2023-04-09T11:37:39;8.33;;;7.63;;
15567;SDS011;7885;42.596;23.044;2023-04-09T11:40:12;8.50;;;7.70;;
15567;SDS011;7885;42.596;23.044;2023-04-09T11:42:41;6.87;;;6.27;;
15567;SDS011;7885;42.596;23.044;2023-04-09T11:45:08;7.10;;;6.50;;
15567;SDS011;7885;42.596;23.044;2023-04-09T11:47:35;6.80;;;6.20;;
15567;SDS011;7885;42.596;23.044;2023-04-09T11:50:04;8.27;;;7.30;;
15567;SDS011;7885;42.596;23.044;2023-04-09T11:52:34;7.70;;;7.10;;
15567;SDS011;7885;42.596;23.044;2023-04-09T11:55:01;6.97;;;6.30;;
15567;SDS011;7885;42.596;23.044;2023-04-09T11:57:41;7.23;;;6.63;;
15567;SDS011;7885;42.596;23.044;2023-04-09T12:00:14;8.23;;;7.47;;
15567;SDS011;7885;42.596;23.044;2023-04-09T12:02:43;7.63;;;6.93;;
15567;SDS011;7885;42.596;23.044;2023-04-09T12:05:12;8.10;;;7.40;;
15567;SDS011;7885;42.596;23.044;2023-04-09T12:07:49;7.27;;;6.67;;
15567;SDS011;7885;42.596;23.044;2023-04-09T12:10:16;7.30;;;6.70;;
15567;SDS011;7885;42.596;23.044;2023-04-09T12:12:43;8.67;;;7.87;;
15567;SDS011;7885;42.596;23.044;2023-04-09T12:15:22;10.93;;;9.87;;
15567;SDS011;7885;42.596;23.044;2023-04-09T12:17:50;7.83;;;7.17;;
15567;SDS011;7885;42.596;23.044;2023-04-09T12:20:26;8.63;;;7.93;;
15567;SDS011;7885;42.596;23.044;2023-04-09T12:22:59;10.67;;;9.57;;
15567;SDS011;7885;42.596;23.044;2023-04-09T12:25:27;12.77;;;11.57;;
15567;SDS011;7885;42.596;23.044;2023-04-09T12:27:55;15.60;;;14.00;;
15567;SDS011;7885;42.596;23.044;2023-04-09T12:30:22;12.43;;;11.33;;
15567;SDS011;7885;42.596;23.044;2023-04-09T12:32:50;17.03;;;15.23;;
15567;SDS011;7885;42.596;23.044;2023-04-09T12:35:18;15.93;;;14.33;;
15567;SDS011;7885;42.596;23.044;2023-04-09T12:37:45;20.53;;;17.00;;
15567;SDS011;7885;42.596;23.044;2023-04-09T12:40:13;25.23;;;22.40;;
15567;SDS011;7885;42.596;23.044;2023-04-09T12:42:40;22.70;;;20.50;;
15567;SDS011;7885;42.596;23.044;2023-04-09T12:45:08;16.13;;;14.60;;
15567;SDS011;7885;42.596;23.044;2023-04-09T12:47:36;17.13;;;15.53;;
15567;SDS011;7885;42.596;23.044;2023-04-09T12:50:05;18.13;;;16.33;;
15567;SDS011;7885;42.596;23.044;2023-04-09T12:52:33;20.70;;;18.60;;
15567;SDS011;7885;42.596;23.044;2023-04-09T12:55:00;19.53;;;17.53;;
15567;SDS011;7885;42.596;23.044;2023-04-09T12:57:28;19.50;;;17.60;;
15567;SDS011;7885;42.596;23.044;2023-04-09T12:59:55;18.10;;;16.30;;
15567;SDS011;7885;42.596;23.044;2023-04-09T13:02:23;20.83;;;18.83;;
15567;SDS011;7885;42.596;23.044;2023-04-09T13:04:50;24.10;;;21.63;;
15567;SDS011;7885;42.596;23.044;2023-04-09T13:07:17;23.50;;;21.03;;
15567;SDS011;7885;42.596;23.044;2023-04-09T13:09:45;20.30;;;18.27;;
15567;SDS011;7885;42.596;23.044;2023-04-09T13:12:12;21.47;;;19.40;;
15567;SDS011;7885;42.596;23.044;2023-04-09T13:14:41;17.97;;;16.17;;
15567;SDS011;7885;42.596;23.044;2023-04-09T13:17:09;20.20;;;18.20;;
15567;SDS011;7885;42.596;23.044;2023-04-09T13:19:36;19.07;;;17.17;;
15567;SDS011;7885;42.596;23.044;2023-04-09T13:22:02;19.53;;;17.63;;
15567;SDS011;7885;42.596;23.044;2023-04-09T13:24:32;20.23;;;18.33;;
15567;SDS011;7885;42.596;23.044;2023-04-09T13:26:59;20.07;;;18.00;;
15567;SDS011;7885;42.596;23.044;2023-04-09T13:29:25;24.57;;;19.67;;
15567;SDS011;7885;42.596;23.044;2023-04-09T13:31:54;17.33;;;15.53;;
15567;SDS011;7885;42.596;23.044;2023-04-09T13:34:22;20.83;;;18.60;;
15567;SDS011;7885;42.596;23.044;2023-04-09T13:36:49;18.83;;;16.87;;
15567;SDS011;7885;42.596;23.044;2023-04-09T13:39:18;18.10;;;16.07;;
15567;SDS011;7885;42.596;23.044;2023-04-09T13:41:45;22.97;;;20.53;;
15567;SDS011;7885;42.596;23.044;2023-04-09T13:44:12;18.17;;;16.27;;
15567;SDS011;7885;42.596;23.044;2023-04-09T13:46:39;16.33;;;14.77;;
15567;SDS011;7885;42.596;23.044;2023-04-09T13:49:08;16.07;;;14.47;;
15567;SDS011;7885;42.596;23.044;2023-04-09T13:51:34;16.23;;;14.53;;
15567;SDS011;7885;42.596;23.044;2023-04-09T13:54:01;13.83;;;12.40;;
15567;SDS011;7885;42.596;23.044;2023-04-09T13:56:28;16.90;;;15.20;;
15567;SDS011;7885;42.596;23.044;2023-04-09T13:58:56;21.67;;;17.47;;
15567;SDS011;7885;42.596;23.044;2023-04-09T14:01:23;23.87;;;19.87;;
15567;SDS011;7885;42.596;23.044;2023-04-09T14:03:51;20.70;;;18.50;;
15567;SDS011;7885;42.596;23.044;2023-04-09T14:06:19;17.57;;;15.73;;
15567;SDS011;7885;42.596;23.044;2023-04-09T14:08:46;17.97;;;15.30;;
15567;SDS011;7885;42.596;23.044;2023-04-09T14:11:13;17.17;;;14.93;;
15567;SDS011;7885;42.596;23.044;2023-04-09T14:13:40;19.57;;;17.47;;
15567;SDS011;7885;42.596;23.044;2023-04-09T14:16:08;19.73;;;17.63;;
15567;SDS011;7885;42.596;23.044;2023-04-09T14:18:35;20.93;;;16.77;;
15567;SDS011;7885;42.596;23.044;2023-04-09T14:21:01;25.77;;;19.83;;
15567;SDS011;7885;42.596;23.044;2023-04-09T14:23:30;20.30;;;16.50;;
15567;SDS011;7885;42.596;23.044;2023-04-09T14:25:57;14.37;;;12.87;;
15567;SDS011;7885;42.596;23.044;2023-04-09T14:28:26;14.27;;;12.80;;
15567;SDS011;7885;42.596;23.044;2023-04-09T14:31:06;16.90;;;15.20;;
15567;SDS011;7885;42.596;23.044;2023-04-09T14:33:38;17.83;;;16.03;;
15567;SDS011;7885;42.596;23.044;2023-04-09T14:36:05;19.60;;;17.63;;